sensor_id;sensor_type;location;lat;lon;timestamp;temperature;humidity
47168;DHT22;32931;47.778;17.806;2023-07-13T00:00:50;21.10;99.90
47168;DHT22;32931;47.778;17.806;2023-07-13T00:03:16;21.20;99.90
47168;DHT22;32931;47.778;17.806;2023-07-13T00:05:43;21.40;99.90
47168;DHT22;32931;47.778;17.806;2023-07-13T00:08:09;21.40;99.90
47168;DHT22;32931;47.778;17.806;2023-07-13T00:10:41;21.30;99.90
47168;DHT22;32931;47.778;17.806;2023-07-13T00:13:08;21.30;99.90
47168;DHT22;32931;47.778;17.806;2023-07-13T00:15:35;21.30;99.90
47168;DHT22;32931;47.778;17.806;2023-07-13T00:18:01;21.20;99.90
47168;DHT22;32931;47.778;17.806;2023-07-13T00:20:27;21.30;99.90
47168;DHT22;32931;47.778;17.806;2023-07-13T00:22:54;21.40;99.90
47168;DHT22;32931;47.778;17.806;2023-07-13T00:25:21;21.30;99.90
47168;DHT22;32931;47.778;17.806;2023-07-13T00:27:48;21.10;99.90
47168;DHT22;32931;47.778;17.806;2023-07-13T00:30:17;21.20;99.90
47168;DHT22;32931;47.778;17.806;2023-07-13T00:32:43;21.30;99.90
47168;DHT22;32931;47.778;17.806;2023-07-13T00:35:10;21.20;99.90
47168;DHT22;32931;47.778;17.806;2023-07-13T00:37:36;21.30;99.90
47168;DHT22;32931;47.778;17.806;2023-07-13T00:40:03;21.10;99.90
47168;DHT22;32931;47.778;17.806;2023-07-13T00:42:30;20.90;99.90
47168;DHT22;32931;47.778;17.806;2023-07-13T00:47:37;21.20;99.90
47168;DHT22;32931;47.778;17.806;2023-07-13T00:50:05;21.10;99.90
47168;DHT22;32931;47.778;17.806;2023-07-13T00:52:33;21.10;99.90
47168;DHT22;32931;47.778;17.806;2023-07-13T00:54:59;21.10;99.90
47168;DHT22;32931;47.778;17.806;2023-07-13T00:57:26;21.00;99.90
47168;DHT22;32931;47.778;17.806;2023-07-13T00:59:57;21.10;99.90
47168;DHT22;32931;47.778;17.806;2023-07-13T01:02:25;21.20;99.90
47168;DHT22;32931;47.778;17.806;2023-07-13T01:04:51;21.30;99.90
47168;DHT22;32931;47.778;17.806;2023-07-13T01:07:18;21.40;99.90
47168;DHT22;32931;47.778;17.806;2023-07-13T01:09:45;21.50;99.90
47168;DHT22;32931;47.778;17.806;2023-07-13T01:12:11;21.50;99.90
47168;DHT22;32931;47.778;17.806;2023-07-13T01:14:37;21.60;99.90
47168;DHT22;32931;47.778;17.806;2023-07-13T01:17:04;21.60;99.90
47168;DHT22;32931;47.778;17.806;2023-07-13T01:19:43;21.60;99.90
47168;DHT22;32931;47.778;17.806;2023-07-13T01:22:14;21.50;99.90
47168;DHT22;32931;47.778;17.806;2023-07-13T01:24:42;21.30;99.90
47168;DHT22;32931;47.778;17.806;2023-07-13T01:27:10;21.20;99.90
47168;DHT22;32931;47.778;17.806;2023-07-13T01:29:39;21.20;99.90
47168;DHT22;32931;47.778;17.806;2023-07-13T01:32:09;21.20;99.90
47168;DHT22;32931;47.778;17.806;2023-07-13T01:34:36;21.30;99.90
47168;DHT22;32931;47.778;17.806;2023-07-13T01:37:06;21.20;99.90
47168;DHT22;32931;47.778;17.806;2023-07-13T01:39:33;21.20;99.90
47168;DHT22;32931;47.778;17.806;2023-07-13T01:41:59;21.20;99.90
47168;DHT22;32931;47.778;17.806;2023-07-13T01:44:26;21.20;99.90
47168;DHT22;32931;47.778;17.806;2023-07-13T01:46:52;21.20;99.90
47168;DHT22;32931;47.778;17.806;2023-07-13T01:49:18;21.10;99.90
47168;DHT22;32931;47.778;17.806;2023-07-13T01:51:44;21.10;99.90
47168;DHT22;32931;47.778;17.806;2023-07-13T01:54:10;21.00;99.90
47168;DHT22;32931;47.778;17.806;2023-07-13T01:56:36;20.80;99.90
47168;DHT22;32931;47.778;17.806;2023-07-13T01:59:03;20.70;99.90
47168;DHT22;32931;47.778;17.806;2023-07-13T02:01:29;20.70;99.90
47168;DHT22;32931;47.778;17.806;2023-07-13T02:03:55;20.70;99.90
47168;DHT22;32931;47.778;17.806;2023-07-13T02:06:21;20.80;99.90
47168;DHT22;32931;47.778;17.806;2023-07-13T02:08:47;20.90;99.90
47168;DHT22;32931;47.778;17.806;2023-07-13T02:11:13;20.90;99.90
47168;DHT22;32931;47.778;17.806;2023-07-13T02:13:39;20.80;99.90
47168;DHT22;32931;47.778;17.806;2023-07-13T02:16:06;20.90;99.90
47168;DHT22;32931;47.778;17.806;2023-07-13T02:18:32;20.90;99.90
47168;DHT22;32931;47.778;17.806;2023-07-13T02:20:58;21.00;99.90
47168;DHT22;32931;47.778;17.806;2023-07-13T02:23:24;21.10;99.90
47168;DHT22;32931;47.778;17.806;2023-07-13T02:25:55;21.10;99.90
47168;DHT22;32931;47.778;17.806;2023-07-13T02:28:21;21.10;99.90
47168;DHT22;32931;47.778;17.806;2023-07-13T02:30:47;21.10;99.90
47168;DHT22;32931;47.778;17.806;2023-07-13T02:33:13;21.20;99.90
47168;DHT22;32931;47.778;17.806;2023-07-13T02:35:40;21.20;99.90
47168;DHT22;32931;47.778;17.806;2023-07-13T02:38:06;21.30;99.90
47168;DHT22;32931;47.778;17.806;2023-07-13T02:40:33;21.30;99.90
47168;DHT22;32931;47.778;17.806;2023-07-13T02:43:00;21.30;99.90
47168;DHT22;32931;47.778;17.806;2023-07-13T02:45:26;21.20;99.90
47168;DHT22;32931;47.778;17.806;2023-07-13T02:47:52;21.20;99.90
47168;DHT22;32931;47.778;17.806;2023-07-13T02:50:19;21.30;99.90
47168;DHT22;32931;47.778;17.806;2023-07-13T02:52:45;21.20;99.90
47168;DHT22;32931;47.778;17.806;2023-07-13T02:55:11;21.20;99.90
47168;DHT22;32931;47.778;17.806;2023-07-13T02:57:37;21.10;99.90
47168;DHT22;32931;47.778;17.806;2023-07-13T03:00:04;21.00;99.90
47168;DHT22;32931;47.778;17.806;2023-07-13T03:02:32;21.00;99.90
47168;DHT22;32931;47.778;17.806;2023-07-13T03:04:58;21.00;99.90
47168;DHT22;32931;47.778;17.806;2023-07-13T03:07:24;20.90;99.90
47168;DHT22;32931;47.778;17.806;2023-07-13T03:09:56;20.80;99.90
47168;DHT22;32931;47.778;17.806;2023-07-13T03:12:23;20.80;99.90
47168;DHT22;32931;47.778;17.806;2023-07-13T03:14:49;20.80;99.90
47168;DHT22;32931;47.778;17.806;2023-07-13T03:17:15;20.90;99.90
47168;DHT22;32931;47.778;17.806;2023-07-13T03:19:41;20.90;99.90
47168;DHT22;32931;47.778;17.806;2023-07-13T03:22:08;20.90;99.90
47168;DHT22;32931;47.778;17.806;2023-07-13T03:24:35;21.00;99.90
47168;DHT22;32931;47.778;17.806;2023-07-13T03:27:03;21.10;99.90
47168;DHT22;32931;47.778;17.806;2023-07-13T03:29:29;21.20;99.90
47168;DHT22;32931;47.778;17.806;2023-07-13T03:31:55;21.30;99.90
47168;DHT22;32931;47.778;17.806;2023-07-13T03:34:21;21.40;99.90
47168;DHT22;32931;47.778;17.806;2023-07-13T03:36:48;21.40;99.90
47168;DHT22;32931;47.778;17.806;2023-07-13T03:39:14;21.40;99.90
47168;DHT22;32931;47.778;17.806;2023-07-13T03:41:40;21.40;99.90
47168;DHT22;32931;47.778;17.806;2023-07-13T03:44:06;21.40;99.90
47168;DHT22;32931;47.778;17.806;2023-07-13T03:46:32;21.40;99.90
47168;DHT22;32931;47.778;17.806;2023-07-13T03:48:59;21.40;99.90
47168;DHT22;32931;47.778;17.806;2023-07-13T03:51:26;21.40;99.90
47168;DHT22;32931;47.778;17.806;2023-07-13T03:53:52;21.30;99.90
47168;DHT22;32931;47.778;17.806;2023-07-13T03:56:18;21.20;99.90
47168;DHT22;32931;47.778;17.806;2023-07-13T03:58:47;21.10;99.90
47168;DHT22;32931;47.778;17.806;2023-07-13T04:01:14;21.00;99.90
47168;DHT22;32931;47.778;17.806;2023-07-13T04:03:41;20.80;99.90
47168;DHT22;32931;47.778;17.806;2023-07-13T04:06:15;20.80;99.90
47168;DHT22;32931;47.778;17.806;2023-07-13T04:08:48;20.70;99.90
47168;DHT22;32931;47.778;17.806;2023-07-13T04:11:17;20.60;99.90
47168;DHT22;32931;47.778;17.806;2023-07-13T04:13:43;20.60;99.90
47168;DHT22;32931;47.778;17.806;2023-07-13T04:16:10;20.70;99.90
47168;DHT22;32931;47.778;17.806;2023-07-13T04:18:36;20.70;99.90
47168;DHT22;32931;47.778;17.806;2023-07-13T04:21:02;20.70;99.90
47168;DHT22;32931;47.778;17.806;2023-07-13T04:23:29;20.70;99.90
47168;DHT22;32931;47.778;17.806;2023-07-13T04:25:55;20.60;99.90
47168;DHT22;32931;47.778;17.806;2023-07-13T04:28:22;20.60;99.90
47168;DHT22;32931;47.778;17.806;2023-07-13T04:30:49;20.60;99.90
47168;DHT22;32931;47.778;17.806;2023-07-13T04:33:16;20.60;99.90
47168;DHT22;32931;47.778;17.806;2023-07-13T04:35:52;20.50;99.90
47168;DHT22;32931;47.778;17.806;2023-07-13T04:38:28;20.40;99.90
47168;DHT22;32931;47.778;17.806;2023-07-13T04:41:01;20.30;99.90
47168;DHT22;32931;47.778;17.806;2023-07-13T04:43:29;20.30;99.90
47168;DHT22;32931;47.778;17.806;2023-07-13T04:45:55;20.20;99.90
47168;DHT22;32931;47.778;17.806;2023-07-13T04:48:22;20.10;99.90
47168;DHT22;32931;47.778;17.806;2023-07-13T04:50:57;20.10;99.90
47168;DHT22;32931;47.778;17.806;2023-07-13T04:53:25;20.10;99.90
47168;DHT22;32931;47.778;17.806;2023-07-13T04:55:51;20.00;99.90
47168;DHT22;32931;47.778;17.806;2023-07-13T04:58:17;20.00;99.90
47168;DHT22;32931;47.778;17.806;2023-07-13T05:00:43;20.00;99.90
47168;DHT22;32931;47.778;17.806;2023-07-13T05:03:09;20.00;99.90
47168;DHT22;32931;47.778;17.806;2023-07-13T05:05:36;20.10;99.90
47168;DHT22;32931;47.778;17.806;2023-07-13T05:08:02;20.20;99.90
47168;DHT22;32931;47.778;17.806;2023-07-13T05:10:28;20.20;99.90
47168;DHT22;32931;47.778;17.806;2023-07-13T05:12:54;20.30;99.90
47168;DHT22;32931;47.778;17.806;2023-07-13T05:15:24;20.40;99.90
47168;DHT22;32931;47.778;17.806;2023-07-13T05:17:51;20.50;99.90
47168;DHT22;32931;47.778;17.806;2023-07-13T05:20:18;20.60;99.90
47168;DHT22;32931;47.778;17.806;2023-07-13T05:22:45;20.80;99.90
47168;DHT22;32931;47.778;17.806;2023-07-13T05:25:13;20.90;99.90
47168;DHT22;32931;47.778;17.806;2023-07-13T05:27:39;21.00;99.90
47168;DHT22;32931;47.778;17.806;2023-07-13T05:30:06;21.10;99.90
47168;DHT22;32931;47.778;17.806;2023-07-13T05:32:33;21.10;99.90
47168;DHT22;32931;47.778;17.806;2023-07-13T05:34:59;21.10;99.90
47168;DHT22;32931;47.778;17.806;2023-07-13T05:37:25;21.10;99.90
47168;DHT22;32931;47.778;17.806;2023-07-13T05:39:51;21.10;99.90
47168;DHT22;32931;47.778;17.806;2023-07-13T05:42:18;21.10;99.90
47168;DHT22;32931;47.778;17.806;2023-07-13T05:44:44;21.10;99.90
47168;DHT22;32931;47.778;17.806;2023-07-13T05:47:10;21.10;99.90
47168;DHT22;32931;47.778;17.806;2023-07-13T05:49:36;21.10;99.90
47168;DHT22;32931;47.778;17.806;2023-07-13T05:52:03;21.10;99.90
47168;DHT22;32931;47.778;17.806;2023-07-13T05:54:29;21.20;99.90
47168;DHT22;32931;47.778;17.806;2023-07-13T05:56:55;21.20;99.90
47168;DHT22;32931;47.778;17.806;2023-07-13T05:59:22;21.20;99.90
47168;DHT22;32931;47.778;17.806;2023-07-13T06:01:49;21.20;99.90
47168;DHT22;32931;47.778;17.806;2023-07-13T06:04:15;21.30;99.90
47168;DHT22;32931;47.778;17.806;2023-07-13T06:06:41;21.30;99.90
47168;DHT22;32931;47.778;17.806;2023-07-13T06:09:07;21.20;99.90
47168;DHT22;32931;47.778;17.806;2023-07-13T06:11:33;21.30;99.90
47168;DHT22;32931;47.778;17.806;2023-07-13T06:14:00;21.30;99.90
47168;DHT22;32931;47.778;17.806;2023-07-13T06:16:27;21.30;99.90
47168;DHT22;32931;47.778;17.806;2023-07-13T06:18:53;21.30;99.90
47168;DHT22;32931;47.778;17.806;2023-07-13T06:21:20;21.20;99.90
47168;DHT22;32931;47.778;17.806;2023-07-13T06:23:48;21.20;99.90
47168;DHT22;32931;47.778;17.806;2023-07-13T06:26:15;21.30;99.90
47168;DHT22;32931;47.778;17.806;2023-07-13T06:28:41;21.40;99.90
47168;DHT22;32931;47.778;17.806;2023-07-13T06:31:09;21.40;99.90
47168;DHT22;32931;47.778;17.806;2023-07-13T06:33:36;21.50;99.90
47168;DHT22;32931;47.778;17.806;2023-07-13T06:36:04;21.50;99.90
47168;DHT22;32931;47.778;17.806;2023-07-13T06:38:31;21.60;99.90
47168;DHT22;32931;47.778;17.806;2023-07-13T06:40:58;21.70;99.90
47168;DHT22;32931;47.778;17.806;2023-07-13T06:43:24;21.70;99.90
47168;DHT22;32931;47.778;17.806;2023-07-13T06:45:55;21.80;99.90
47168;DHT22;32931;47.778;17.806;2023-07-13T06:48:22;21.80;99.90
47168;DHT22;32931;47.778;17.806;2023-07-13T06:50:49;21.90;99.90
47168;DHT22;32931;47.778;17.806;2023-07-13T06:53:16;21.80;99.90
47168;DHT22;32931;47.778;17.806;2023-07-13T06:55:44;21.80;99.90
47168;DHT22;32931;47.778;17.806;2023-07-13T06:58:11;21.80;99.90
47168;DHT22;32931;47.778;17.806;2023-07-13T07:00:37;21.90;99.90
47168;DHT22;32931;47.778;17.806;2023-07-13T07:03:06;22.00;99.90
47168;DHT22;32931;47.778;17.806;2023-07-13T07:05:32;22.00;99.90
47168;DHT22;32931;47.778;17.806;2023-07-13T07:07:59;22.00;99.90
47168;DHT22;32931;47.778;17.806;2023-07-13T07:10:26;22.00;99.90
47168;DHT22;32931;47.778;17.806;2023-07-13T07:12:52;22.00;99.90
47168;DHT22;32931;47.778;17.806;2023-07-13T07:15:18;22.10;99.90
47168;DHT22;32931;47.778;17.806;2023-07-13T07:17:45;22.10;99.90
47168;DHT22;32931;47.778;17.806;2023-07-13T07:20:11;22.10;99.90
47168;DHT22;32931;47.778;17.806;2023-07-13T07:22:37;22.20;99.90
47168;DHT22;32931;47.778;17.806;2023-07-13T07:25:04;22.30;99.90
47168;DHT22;32931;47.778;17.806;2023-07-13T07:27:30;22.40;99.90
47168;DHT22;32931;47.778;17.806;2023-07-13T07:29:56;22.40;99.90
47168;DHT22;32931;47.778;17.806;2023-07-13T07:32:24;22.50;99.90
47168;DHT22;32931;47.778;17.806;2023-07-13T07:34:50;22.60;99.90
47168;DHT22;32931;47.778;17.806;2023-07-13T07:37:16;22.70;99.90
47168;DHT22;32931;47.778;17.806;2023-07-13T07:39:43;22.80;99.90
47168;DHT22;32931;47.778;17.806;2023-07-13T07:42:09;22.90;99.90
47168;DHT22;32931;47.778;17.806;2023-07-13T07:44:35;23.10;99.90
47168;DHT22;32931;47.778;17.806;2023-07-13T07:47:02;23.10;99.90
47168;DHT22;32931;47.778;17.806;2023-07-13T07:49:28;23.10;99.90
47168;DHT22;32931;47.778;17.806;2023-07-13T07:51:54;23.10;99.90
47168;DHT22;32931;47.778;17.806;2023-07-13T07:54:21;23.10;99.90
47168;DHT22;32931;47.778;17.806;2023-07-13T07:56:47;23.20;99.90
47168;DHT22;32931;47.778;17.806;2023-07-13T07:59:13;23.30;99.90
47168;DHT22;32931;47.778;17.806;2023-07-13T08:01:39;23.30;99.90
47168;DHT22;32931;47.778;17.806;2023-07-13T08:04:05;23.30;99.90
47168;DHT22;32931;47.778;17.806;2023-07-13T08:06:32;23.40;99.90
47168;DHT22;32931;47.778;17.806;2023-07-13T08:08:59;23.50;99.90
47168;DHT22;32931;47.778;17.806;2023-07-13T08:11:27;23.50;99.90
47168;DHT22;32931;47.778;17.806;2023-07-13T08:13:53;23.50;99.90
47168;DHT22;32931;47.778;17.806;2023-07-13T08:16:19;23.40;99.90
47168;DHT22;32931;47.778;17.806;2023-07-13T08:18:45;23.50;99.90
47168;DHT22;32931;47.778;17.806;2023-07-13T08:21:12;23.60;99.90
47168;DHT22;32931;47.778;17.806;2023-07-13T08:23:38;23.70;99.90
47168;DHT22;32931;47.778;17.806;2023-07-13T08:26:04;23.70;99.90
47168;DHT22;32931;47.778;17.806;2023-07-13T08:28:33;23.80;99.90
47168;DHT22;32931;47.778;17.806;2023-07-13T08:31:06;23.90;99.90
47168;DHT22;32931;47.778;17.806;2023-07-13T08:33:36;23.90;99.90
47168;DHT22;32931;47.778;17.806;2023-07-13T08:36:03;24.00;99.90
47168;DHT22;32931;47.778;17.806;2023-07-13T08:38:29;23.90;99.90
47168;DHT22;32931;47.778;17.806;2023-07-13T08:40:56;24.00;99.90
47168;DHT22;32931;47.778;17.806;2023-07-13T08:43:26;24.10;99.90
47168;DHT22;32931;47.778;17.806;2023-07-13T08:46:02;24.20;99.90
47168;DHT22;32931;47.778;17.806;2023-07-13T08:49:01;24.30;99.90
47168;DHT22;32931;47.778;17.806;2023-07-13T08:51:47;24.30;99.90
47168;DHT22;32931;47.778;17.806;2023-07-13T08:54:43;24.30;99.90
47168;DHT22;32931;47.778;17.806;2023-07-13T08:57:16;24.40;99.90
47168;DHT22;32931;47.778;17.806;2023-07-13T08:59:44;24.40;99.90
47168;DHT22;32931;47.778;17.806;2023-07-13T09:04:53;24.40;99.90
47168;DHT22;32931;47.778;17.806;2023-07-13T09:07:26;24.50;99.90
47168;DHT22;32931;47.778;17.806;2023-07-13T09:10:15;24.60;99.90
47168;DHT22;32931;47.778;17.806;2023-07-13T09:15:37;24.70;99.90
47168;DHT22;32931;47.778;17.806;2023-07-13T09:18:30;24.60;99.90
47168;DHT22;32931;47.778;17.806;2023-07-13T09:21:03;24.70;99.90
47168;DHT22;32931;47.778;17.806;2023-07-13T09:23:30;24.70;99.90
47168;DHT22;32931;47.778;17.806;2023-07-13T09:26:20;24.80;99.90
47168;DHT22;32931;47.778;17.806;2023-07-13T09:28:53;24.80;99.90
47168;DHT22;32931;47.778;17.806;2023-07-13T09:31:28;24.90;99.90
47168;DHT22;32931;47.778;17.806;2023-07-13T09:33:57;24.90;99.90
47168;DHT22;32931;47.778;17.806;2023-07-13T09:36:32;25.00;99.90
47168;DHT22;32931;47.778;17.806;2023-07-13T09:39:09;25.00;99.90
47168;DHT22;32931;47.778;17.806;2023-07-13T09:44:18;25.20;99.90
47168;DHT22;32931;47.778;17.806;2023-07-13T09:46:54;25.30;99.90
47168;DHT22;32931;47.778;17.806;2023-07-13T09:49:34;25.40;99.90
47168;DHT22;32931;47.778;17.806;2023-07-13T09:52:04;25.40;99.90
47168;DHT22;32931;47.778;17.806;2023-07-13T09:54:34;25.50;99.90
47168;DHT22;32931;47.778;17.806;2023-07-13T09:57:01;25.50;99.90
47168;DHT22;32931;47.778;17.806;2023-07-13T09:59:39;25.50;99.90
47168;DHT22;32931;47.778;17.806;2023-07-13T10:02:29;25.60;99.90
47168;DHT22;32931;47.778;17.806;2023-07-13T10:05:04;25.80;99.90
47168;DHT22;32931;47.778;17.806;2023-07-13T10:07:32;25.80;99.90
47168;DHT22;32931;47.778;17.806;2023-07-13T10:10:00;25.90;99.90
47168;DHT22;32931;47.778;17.806;2023-07-13T10:12:29;25.90;99.90
47168;DHT22;32931;47.778;17.806;2023-07-13T10:14:57;26.00;99.90
47168;DHT22;32931;47.778;17.806;2023-07-13T10:17:31;26.10;99.90
47168;DHT22;32931;47.778;17.806;2023-07-13T10:20:03;26.20;99.90
47168;DHT22;32931;47.778;17.806;2023-07-13T10:22:54;26.30;99.90
47168;DHT22;32931;47.778;17.806;2023-07-13T10:25:28;26.40;99.90
47168;DHT22;32931;47.778;17.806;2023-07-13T10:28:43;26.40;99.90
47168;DHT22;32931;47.778;17.806;2023-07-13T10:30:50;26.50;99.90
47168;DHT22;32931;47.778;17.806;2023-07-13T10:33:18;26.60;99.90
47168;DHT22;32931;47.778;17.806;2023-07-13T10:35:47;26.70;99.90
47168;DHT22;32931;47.778;17.806;2023-07-13T10:38:19;26.70;99.90
47168;DHT22;32931;47.778;17.806;2023-07-13T10:43:39;26.90;99.90
47168;DHT22;32931;47.778;17.806;2023-07-13T10:46:11;27.00;99.90
47168;DHT22;32931;47.778;17.806;2023-07-13T10:48:39;27.10;99.90
47168;DHT22;32931;47.778;17.806;2023-07-13T10:51:06;27.10;99.90
47168;DHT22;32931;47.778;17.806;2023-07-13T10:53:35;27.20;99.90
47168;DHT22;32931;47.778;17.806;2023-07-13T10:56:04;27.30;99.90
47168;DHT22;32931;47.778;17.806;2023-07-13T10:58:39;27.30;99.90
47168;DHT22;32931;47.778;17.806;2023-07-13T11:01:17;27.30;99.90
47168;DHT22;32931;47.778;17.806;2023-07-13T11:27:33;28.10;99.90
47168;DHT22;32931;47.778;17.806;2023-07-13T11:30:24;28.10;99.90
47168;DHT22;32931;47.778;17.806;2023-07-13T11:33:55;28.20;99.90
47168;DHT22;32931;47.778;17.806;2023-07-13T11:38:45;28.40;99.90
47168;DHT22;32931;47.778;17.806;2023-07-13T11:41:15;28.50;99.90
47168;DHT22;32931;47.778;17.806;2023-07-13T11:43:43;28.50;99.90
47168;DHT22;32931;47.778;17.806;2023-07-13T11:46:21;28.70;99.90
47168;DHT22;32931;47.778;17.806;2023-07-13T11:48:49;28.70;98.30
47168;DHT22;32931;47.778;17.806;2023-07-13T11:51:33;28.80;99.90
47168;DHT22;32931;47.778;17.806;2023-07-13T11:54:25;29.00;99.90
47168;DHT22;32931;47.778;17.806;2023-07-13T11:56:58;29.10;98.40
47168;DHT22;32931;47.778;17.806;2023-07-13T11:59:26;29.30;99.90
47168;DHT22;32931;47.778;17.806;2023-07-13T12:01:55;29.40;99.90
47168;DHT22;32931;47.778;17.806;2023-07-13T12:04:32;29.50;97.50
47168;DHT22;32931;47.778;17.806;2023-07-13T12:09:30;29.70;96.00
47168;DHT22;32931;47.778;17.806;2023-07-13T12:11:57;29.80;97.90
47168;DHT22;32931;47.778;17.806;2023-07-13T12:14:26;29.90;99.20
47168;DHT22;32931;47.778;17.806;2023-07-13T12:16:53;29.90;98.80
47168;DHT22;32931;47.778;17.806;2023-07-13T12:19:26;30.00;96.90
47168;DHT22;32931;47.778;17.806;2023-07-13T12:21:55;30.10;96.30
47168;DHT22;32931;47.778;17.806;2023-07-13T12:24:22;30.30;97.80
47168;DHT22;32931;47.778;17.806;2023-07-13T12:26:58;30.50;98.70
47168;DHT22;32931;47.778;17.806;2023-07-13T12:29:26;30.70;96.10
47168;DHT22;32931;47.778;17.806;2023-07-13T12:31:52;31.00;96.50
47168;DHT22;32931;47.778;17.806;2023-07-13T12:34:20;31.10;96.10
47168;DHT22;32931;47.778;17.806;2023-07-13T12:39:46;31.00;93.10
47168;DHT22;32931;47.778;17.806;2023-07-13T12:42:26;31.00;90.40
47168;DHT22;32931;47.778;17.806;2023-07-13T12:44:59;31.10;92.10
47168;DHT22;32931;47.778;17.806;2023-07-13T12:47:27;31.20;93.80
47168;DHT22;32931;47.778;17.806;2023-07-13T12:49:58;31.30;91.90
47168;DHT22;32931;47.778;17.806;2023-07-13T12:52:33;31.40;93.60
47168;DHT22;32931;47.778;17.806;2023-07-13T12:55:18;31.60;92.80
47168;DHT22;32931;47.778;17.806;2023-07-13T12:57:51;31.70;90.60
47168;DHT22;32931;47.778;17.806;2023-07-13T13:00:33;31.80;94.80
47168;DHT22;32931;47.778;17.806;2023-07-13T13:03:07;31.80;89.00
47168;DHT22;32931;47.778;17.806;2023-07-13T13:05:33;31.80;90.00
47168;DHT22;32931;47.778;17.806;2023-07-13T13:08:00;31.70;91.60
47168;DHT22;32931;47.778;17.806;2023-07-13T13:10:26;31.60;91.10
47168;DHT22;32931;47.778;17.806;2023-07-13T13:12:52;31.70;91.90
47168;DHT22;32931;47.778;17.806;2023-07-13T13:15:19;31.60;92.30
47168;DHT22;32931;47.778;17.806;2023-07-13T13:17:45;31.60;91.30
47168;DHT22;32931;47.778;17.806;2023-07-13T13:20:19;31.20;90.30
47168;DHT22;32931;47.778;17.806;2023-07-13T13:22:46;31.20;89.60
47168;DHT22;32931;47.778;17.806;2023-07-13T13:25:13;31.20;92.30
47168;DHT22;32931;47.778;17.806;2023-07-13T13:27:43;31.30;92.70
47168;DHT22;32931;47.778;17.806;2023-07-13T13:30:15;31.20;91.70
47168;DHT22;32931;47.778;17.806;2023-07-13T13:32:44;31.20;90.30
47168;DHT22;32931;47.778;17.806;2023-07-13T13:35:18;31.20;91.50
47168;DHT22;32931;47.778;17.806;2023-07-13T13:37:45;31.40;90.90
47168;DHT22;32931;47.778;17.806;2023-07-13T13:40:20;31.30;91.30
47168;DHT22;32931;47.778;17.806;2023-07-13T13:42:47;31.30;87.60
47168;DHT22;32931;47.778;17.806;2023-07-13T13:45:13;31.30;91.20
47168;DHT22;32931;47.778;17.806;2023-07-13T13:47:39;31.40;90.90
47168;DHT22;32931;47.778;17.806;2023-07-13T13:50:18;31.30;90.00
47168;DHT22;32931;47.778;17.806;2023-07-13T13:52:45;31.30;86.00
47168;DHT22;32931;47.778;17.806;2023-07-13T13:55:21;31.10;90.40
47168;DHT22;32931;47.778;17.806;2023-07-13T13:57:49;31.10;87.60
47168;DHT22;32931;47.778;17.806;2023-07-13T14:00:17;31.10;91.00
47168;DHT22;32931;47.778;17.806;2023-07-13T14:02:47;31.00;89.90
47168;DHT22;32931;47.778;17.806;2023-07-13T14:05:20;30.90;84.30
47168;DHT22;32931;47.778;17.806;2023-07-13T14:07:47;30.90;84.10
47168;DHT22;32931;47.778;17.806;2023-07-13T14:10:16;30.80;90.20
47168;DHT22;32931;47.778;17.806;2023-07-13T14:12:44;30.80;88.50
47168;DHT22;32931;47.778;17.806;2023-07-13T14:15:23;30.70;90.00
47168;DHT22;32931;47.778;17.806;2023-07-13T14:17:49;30.80;88.60
47168;DHT22;32931;47.778;17.806;2023-07-13T14:20:17;30.70;89.90
47168;DHT22;32931;47.778;17.806;2023-07-13T14:22:44;30.60;90.20
47168;DHT22;32931;47.778;17.806;2023-07-13T14:25:14;30.60;90.30
47168;DHT22;32931;47.778;17.806;2023-07-13T14:27:42;30.50;85.40
47168;DHT22;32931;47.778;17.806;2023-07-13T14:30:16;30.30;86.80
47168;DHT22;32931;47.778;17.806;2023-07-13T14:32:43;30.20;86.30
47168;DHT22;32931;47.778;17.806;2023-07-13T14:35:14;30.30;89.80
47168;DHT22;32931;47.778;17.806;2023-07-13T14:37:41;30.30;89.10
47168;DHT22;32931;47.778;17.806;2023-07-13T14:40:19;30.30;90.10
47168;DHT22;32931;47.778;17.806;2023-07-13T14:42:47;30.30;83.50
47168;DHT22;32931;47.778;17.806;2023-07-13T14:45:19;30.10;89.40
47168;DHT22;32931;47.778;17.806;2023-07-13T14:47:45;30.10;85.20
47168;DHT22;32931;47.778;17.806;2023-07-13T14:50:32;30.00;90.30
47168;DHT22;32931;47.778;17.806;2023-07-13T14:52:58;29.90;84.10
47168;DHT22;32931;47.778;17.806;2023-07-13T14:55:24;29.80;90.60
47168;DHT22;32931;47.778;17.806;2023-07-13T14:57:52;29.90;90.70
47168;DHT22;32931;47.778;17.806;2023-07-13T15:00:20;29.70;90.40
47168;DHT22;32931;47.778;17.806;2023-07-13T15:02:51;29.60;90.10
47168;DHT22;32931;47.778;17.806;2023-07-13T15:05:22;29.60;88.90
47168;DHT22;32931;47.778;17.806;2023-07-13T15:07:51;29.50;91.20
47168;DHT22;32931;47.778;17.806;2023-07-13T15:10:21;29.40;90.80
47168;DHT22;32931;47.778;17.806;2023-07-13T15:12:47;29.40;90.80
47168;DHT22;32931;47.778;17.806;2023-07-13T15:15:14;29.30;90.60
47168;DHT22;32931;47.778;17.806;2023-07-13T15:17:42;29.30;90.80
47168;DHT22;32931;47.778;17.806;2023-07-13T15:20:26;29.20;91.20
47168;DHT22;32931;47.778;17.806;2023-07-13T15:22:53;29.20;90.40
47168;DHT22;32931;47.778;17.806;2023-07-13T15:25:23;29.20;91.80
47168;DHT22;32931;47.778;17.806;2023-07-13T15:27:51;29.20;92.00
47168;DHT22;32931;47.778;17.806;2023-07-13T15:30:17;29.20;92.20
47168;DHT22;32931;47.778;17.806;2023-07-13T15:32:44;29.10;92.50
47168;DHT22;32931;47.778;17.806;2023-07-13T15:35:21;29.10;92.30
47168;DHT22;32931;47.778;17.806;2023-07-13T15:37:49;29.10;92.20
47168;DHT22;32931;47.778;17.806;2023-07-13T15:40:16;29.00;93.00
47168;DHT22;32931;47.778;17.806;2023-07-13T15:42:44;28.90;92.80
47168;DHT22;32931;47.778;17.806;2023-07-13T15:45:16;28.90;92.70
47168;DHT22;32931;47.778;17.806;2023-07-13T15:47:44;28.90;91.90
47168;DHT22;32931;47.778;17.806;2023-07-13T15:50:18;28.80;93.30
47168;DHT22;32931;47.778;17.806;2023-07-13T15:52:47;28.80;92.50
47168;DHT22;32931;47.778;17.806;2023-07-13T15:55:14;28.80;93.50
47168;DHT22;32931;47.778;17.806;2023-07-13T15:57:49;28.70;93.50
47168;DHT22;32931;47.778;17.806;2023-07-13T16:00:26;28.70;92.60
47168;DHT22;32931;47.778;17.806;2023-07-13T16:02:53;28.70;92.00
47168;DHT22;32931;47.778;17.806;2023-07-13T16:05:21;28.60;93.90
47168;DHT22;32931;47.778;17.806;2023-07-13T16:07:49;28.60;93.60
47168;DHT22;32931;47.778;17.806;2023-07-13T16:10:22;28.60;93.60
47168;DHT22;32931;47.778;17.806;2023-07-13T16:12:49;28.40;93.50